KMMI/MMI METAR and TAF weather

Enter ICAO airport designator
Station Type Date Time Source
KMMI METAR 2020/07/14 05:35 UTC NOAA

KMMI 140535Z AUTO 00000KT 10SM CLR 21/18 A3001 RMK A01


Station Type Date Time Source
KMMI Decoded METAR 2020/07/14 05:35 UTC NOAA

Station name not available
Jul 14, 2020 - 01:35 AM EDT / 2020.07.14 0535 UTC
Wind: Calm:0
Visibility: 10 mile(s):0
Sky conditions: clear
Temperature: 69 F (21 C)
Dew Point: 64 F (18 C)
Relative Humidity: 82%
Pressure (altimeter): 30.01 in. Hg (1016 hPa)
ob: KMMI 140535Z AUTO 00000KT 10SM CLR 21/18 A3001 RMK A01
cycle: 5

Station Type Date Time Source
KMMI TAF UTC NOAA

Error!

Example: see airport list